Time;durP1;ratioP1;P1;durP2;ratioP2;P2;SDS_P1;SDS_P2;PMS_P1;PMS_P2;Temp;Humidity;BMP_temperature;BMP_pressure;BME280_temperature;BME280_humidity;BME280_pressure;Samples;Min_cycle;Max_cycle;Signal;HPM_P1;HPM_P2
2022/08/22 00:00:53;;;;;;;6.65;5.97;;;22.40;99.90;;;;;;5004115;28;20687;-71
2022/08/22 00:03:32;;;;;;;8.13;6.35;;;22.40;99.90;;;;;;5001851;28;20199;-71
2022/08/22 00:06:10;;;;;;;11.00;6.65;;;22.40;99.90;;;;;;5001743;28;20215;-70
2022/08/22 00:08:47;;;;;;;6.45;5.85;;;22.40;99.90;;;;;;5003372;28;20214;-71
2022/08/22 00:11:24;;;;;;;9.32;5.97;;;22.40;99.90;;;;;;5007242;28;20209;-71
2022/08/22 00:13:59;;;;;;;10.75;7.10;;;22.40;99.90;;;;;;5001663;28;20242;-72
2022/08/22 00:16:33;;;;;;;6.35;5.70;;;22.40;99.90;;;;;;5002748;28;20696;-71
2022/08/22 00:19:12;;;;;;;6.47;5.72;;;22.30;99.90;;;;;;5008868;28;20223;-71
2022/08/22 00:21:46;;;;;;;9.15;6.18;;;22.30;99.90;;;;;;5002992;28;20230;-72
2022/08/22 00:24:28;;;;;;;10.68;5.90;;;22.30;99.90;;;;;;5000704;28;20581;-70
2022/08/22 00:27:02;;;;;;;7.63;5.30;;;22.30;99.90;;;;;;5006937;28;20532;-70
2022/08/22 00:29:34;;;;;;;7.28;5.97;;;22.20;99.90;;;;;;5005413;28;20210;-69
2022/08/22 00:32:09;;;;;;;8.18;5.97;;;22.20;99.90;;;;;;5008793;28;20715;-70
2022/08/22 00:34:43;;;;;;;7.68;6.28;;;22.10;99.90;;;;;;5003665;28;20554;-70
2022/08/22 00:37:17;;;;;;;10.00;7.13;;;22.10;99.90;;;;;;5011015;28;20203;-70
2022/08/22 00:39:48;;;;;;;9.25;7.00;;;22.10;99.90;;;;;;5000479;28;20668;-71
2022/08/22 00:42:41;;;;;;;7.90;7.10;;;22.10;99.90;;;;;;4995162;28;20207;-70
2022/08/22 00:45:33;;;;;;;8.82;6.05;;;22.10;99.90;;;;;;4993165;28;20203;-69
2022/08/22 00:48:18;;;;;;;10.77;7.55;;;22.10;99.90;;;;;;5007168;28;20565;-70
2022/08/22 00:51:10;;;;;;;7.97;6.88;;;22.00;99.90;;;;;;5002419;28;20195;-70
2022/08/22 00:53:55;;;;;;;6.82;5.97;;;22.00;99.90;;;;;;5004834;28;20220;-70
2022/08/22 00:57:03;;;;;;;11.93;6.78;;;22.00;99.90;;;;;;5003297;28;20569;-69
2022/08/22 01:00:04;;;;;;;9.02;7.45;;;21.90;99.90;;;;;;4996976;28;20269;-69
2022/08/22 01:02:47;;;;;;;9.60;6.53;;;21.90;99.90;;;;;;5007433;28;20527;-69
2022/08/22 01:05:30;;;;;;;11.10;7.20;;;21.90;99.90;;;;;;4994837;28;20203;-70
2022/08/22 01:08:19;;;;;;;11.48;7.45;;;21.80;99.90;;;;;;5009609;28;20195;-70
2022/08/22 01:11:02;;;;;;;9.93;6.90;;;21.70;99.90;;;;;;5005036;28;20196;-69
2022/08/22 01:13:46;;;;;;;9.02;7.88;;;21.70;99.90;;;;;;4991426;28;20226;-69
2022/08/22 01:16:27;;;;;;;8.52;6.70;;;21.70;99.90;;;;;;5001389;28;20218;-69
2022/08/22 01:19:25;;;;;;;10.23;7.15;;;21.70;99.90;;;;;;4992517;28;20227;-69
2022/08/22 01:22:14;;;;;;;9.43;8.10;;;21.70;99.90;;;;;;5008477;28;20231;-70
2022/08/22 01:25:18;;;;;;;9.02;7.35;;;21.60;99.90;;;;;;5002673;28;20681;-69
2022/08/22 01:28:16;;;;;;;11.45;6.90;;;21.60;99.90;;;;;;5008106;28;20210;-69
2022/08/22 01:31:15;;;;;;;9.30;7.13;;;21.60;99.90;;;;;;5007992;28;20195;-70
2022/08/22 01:37:21;;;;;;;10.63;8.63;;;21.50;99.90;;;;;;5100940;27;21058;-70
2022/08/22 01:40:05;;;;;;;6.93;6.20;;;21.50;99.90;;;;;;5090848;28;20208;-70
2022/08/22 01:42:53;;;;;;;7.85;6.45;;;21.50;99.90;;;;;;5090807;28;20204;-69
2022/08/22 01:45:43;;;;;;;8.48;6.90;;;21.50;99.90;;;;;;5077653;28;20573;-70
2022/08/22 01:48:14;;;;;;;11.00;7.18;;;21.50;99.90;;;;;;5097959;28;20235;-69
2022/08/22 01:50:46;;;;;;;9.65;7.63;;;21.50;99.90;;;;;;5094438;28;20208;-69
2022/08/22 01:53:23;;;;;;;9.65;6.80;;;21.50;99.90;;;;;;5094768;28;20584;-69
2022/08/22 01:55:58;;;;;;;8.15;7.10;;;21.50;99.90;;;;;;5088420;28;20211;-70
2022/08/22 01:58:29;;;;;;;10.63;7.07;;;21.40;99.90;;;;;;5095318;28;20196;-70
2022/08/22 02:01:12;;;;;;;13.23;7.25;;;21.50;99.90;;;;;;5091526;28;20568;-69
2022/08/22 02:03:52;;;;;;;10.65;7.63;;;21.40;99.90;;;;;;5093717;28;20197;-69
2022/08/22 02:06:25;;;;;;;9.82;7.63;;;21.40;99.90;;;;;;5088989;28;20211;-69
2022/08/22 02:09:01;;;;;;;15.90;7.97;;;21.30;99.90;;;;;;5100361;28;20205;-70
2022/08/22 02:11:38;;;;;;;10.90;7.38;;;21.30;99.90;;;;;;5097900;28;20226;-69
2022/08/22 02:14:17;;;;;;;9.00;7.97;;;21.30;99.90;;;;;;5094255;28;20313;-69
2022/08/22 02:16:47;;;;;;;9.55;7.03;;;21.20;99.90;;;;;;5081238;28;20685;-68
2022/08/22 02:19:37;;;;;;;10.82;8.23;;;21.20;99.90;;;;;;5090818;28;20196;-69
2022/08/22 02:22:20;;;;;;;10.13;7.15;;;21.20;99.90;;;;;;5102487;28;20231;-71
2022/08/22 02:24:54;;;;;;;9.82;7.47;;;21.20;99.90;;;;;;5095577;28;20656;-70
2022/08/22 02:27:32;;;;;;;9.40;7.90;;;21.20;99.90;;;;;;5087969;28;20579;-70
2022/08/22 02:30:04;;;;;;;8.85;6.82;;;21.20;99.90;;;;;;5085168;28;20204;-70
2022/08/22 02:32:42;;;;;;;11.75;7.40;;;21.10;99.90;;;;;;5098572;28;20201;-71
2022/08/22 02:35:21;;;;;;;9.65;7.75;;;21.10;99.90;;;;;;5089660;28;20239;-70
2022/08/22 02:37:57;;;;;;;8.52;7.28;;;21.10;99.90;;;;;;5101476;28;20538;-71
2022/08/22 02:40:34;;;;;;;8.30;7.25;;;21.20;99.90;;;;;;5085911;28;20200;-71
2022/08/22 02:43:12;;;;;;;8.50;7.00;;;21.20;99.90;;;;;;5089705;28;20205;-71
2022/08/22 02:45:46;;;;;;;11.20;7.68;;;21.20;99.90;;;;;;5084538;28;20231;-71
2022/08/22 02:48:19;;;;;;;11.18;8.25;;;21.20;99.90;;;;;;5083943;28;20204;-71
2022/08/22 02:50:54;;;;;;;12.48;7.45;;;21.20;99.90;;;;;;5079833;28;20588;-71
2022/08/22 02:53:26;;;;;;;8.88;7.38;;;21.20;99.90;;;;;;5071323;28;20199;-71
2022/08/22 02:56:00;;;;;;;7.93;7.13;;;21.30;99.90;;;;;;5082884;28;20216;-71
2022/08/22 02:58:36;;;;;;;8.57;6.65;;;21.30;99.90;;;;;;5076302;28;20636;-71
2022/08/22 03:01:23;;;;;;;7.45;6.68;;;21.30;99.90;;;;;;5080937;28;20212;-70
2022/08/22 03:03:52;;;;;;;8.18;6.88;;;21.30;99.90;;;;;;5078766;28;20209;-70
2022/08/22 03:06:41;;;;;;;10.10;6.78;;;21.30;99.90;;;;;;5074303;28;20206;-70
2022/08/22 03:09:23;;;;;;;12.27;6.53;;;21.30;99.90;;;;;;5085554;28;20214;-70
2022/08/22 03:12:01;;;;;;;10.25;6.93;;;21.30;99.90;;;;;;5080148;28;20499;-71
2022/08/22 03:14:34;;;;;;;9.85;7.75;;;21.30;99.90;;;;;;5079191;28;20205;-71
2022/08/22 03:17:07;;;;;;;7.90;7.07;;;21.30;99.90;;;;;;5071079;28;20682;-70
2022/08/22 03:19:49;;;;;;;8.73;6.63;;;21.20;99.90;;;;;;5073141;28;20750;-71
2022/08/22 03:22:22;;;;;;;9.02;6.75;;;21.20;99.90;;;;;;5080577;28;20235;-71
2022/08/22 03:24:54;;;;;;;8.23;6.60;;;21.20;99.90;;;;;;5063674;28;20237;-70
2022/08/22 03:27:26;;;;;;;7.32;6.03;;;21.20;99.90;;;;;;5075392;28;20201;-71
2022/08/22 03:29:56;;;;;;;6.93;6.22;;;21.20;99.90;;;;;;5068941;28;20609;-71
2022/08/22 03:32:44;;;;;;;7.28;6.57;;;21.20;99.90;;;;;;5068180;28;20527;-70
2022/08/22 03:35:21;;;;;;;8.80;6.45;;;21.20;99.90;;;;;;5075308;28;20264;-70
2022/08/22 03:37:50;;;;;;;9.98;6.88;;;21.10;99.90;;;;;;5073113;28;20201;-70
2022/08/22 03:40:31;;;;;;;7.70;6.50;;;21.10;99.90;;;;;;5073627;28;20205;-70
2022/08/22 03:43:17;;;;;;;10.55;7.18;;;21.10;99.90;;;;;;5069903;28;20213;-69
2022/08/22 03:46:20;;;;;;;8.05;6.13;;;21.10;99.90;;;;;;5068057;28;20196;-69
2022/08/22 03:49:32;;;;;;;8.30;6.55;;;21.10;99.90;;;;;;5065765;28;20213;-69
2022/08/22 03:52:16;;;;;;;7.32;6.63;;;21.10;99.90;;;;;;5070743;28;20198;-69
2022/08/22 03:55:15;;;;;;;7.78;6.93;;;21.10;99.90;;;;;;5069618;28;20216;-70
2022/08/22 03:58:24;;;;;;;8.45;5.88;;;21.10;99.90;;;;;;5064792;28;20209;-70
2022/08/22 04:01:32;;;;;;;6.72;5.78;;;21.00;99.90;;;;;;5077170;28;20656;-70
2022/08/22 04:04:35;;;;;;;8.80;6.18;;;21.00;99.90;;;;;;5077587;28;20205;-69
2022/08/22 04:07:25;;;;;;;7.90;6.38;;;21.00;99.90;;;;;;5066209;28;20196;-71
2022/08/22 04:10:19;;;;;;;8.40;6.32;;;20.90;99.90;;;;;;5077544;28;20209;-70
2022/08/22 04:13:02;;;;;;;7.15;6.45;;;20.90;99.90;;;;;;5066177;28;20205;-70
2022/08/22 04:15:56;;;;;;;7.70;6.82;;;20.90;99.90;;;;;;5072200;28;20205;-69
2022/08/22 04:18:53;;;;;;;6.93;6.15;;;20.80;99.90;;;;;;5072398;28;20212;-71
2022/08/22 04:21:41;;;;;;;7.15;6.28;;;20.70;99.90;;;;;;5063307;28;20208;-71
2022/08/22 04:24:31;;;;;;;11.15;6.97;;;20.70;99.90;;;;;;5080418;28;20205;-70
2022/08/22 04:27:02;;;;;;;8.10;6.32;;;20.80;99.90;;;;;;5071589;28;20213;-71
2022/08/22 04:29:35;;;;;;;11.80;6.28;;;20.70;99.90;;;;;;5073956;28;20568;-71
2022/08/22 04:32:08;;;;;;;6.75;6.05;;;20.80;99.90;;;;;;5089013;28;20205;-70
2022/08/22 04:34:39;;;;;;;7.15;6.13;;;20.80;99.90;;;;;;5083723;28;20197;-71
2022/08/22 04:37:13;;;;;;;8.82;6.70;;;20.80;99.90;;;;;;5084137;28;20217;-70
2022/08/22 04:39:51;;;;;;;8.85;6.18;;;20.80;99.90;;;;;;5074609;28;20201;-70
2022/08/22 04:42:22;;;;;;;10.25;6.65;;;20.90;99.90;;;;;;5073153;28;20216;-70
2022/08/22 04:44:55;;;;;;;11.45;7.03;;;20.90;99.90;;;;;;5068465;28;20204;-70
2022/08/22 04:47:30;;;;;;;7.93;6.95;;;20.90;99.90;;;;;;5075844;28;20193;-71
2022/08/22 04:50:03;;;;;;;10.32;6.57;;;20.90;99.90;;;;;;5081121;28;20215;-71
2022/08/22 04:52:39;;;;;;;11.05;7.47;;;20.90;99.90;;;;;;5071425;28;20201;-71
2022/08/22 04:55:19;;;;;;;9.88;6.80;;;20.90;99.90;;;;;;5074685;28;20196;-71
2022/08/22 04:57:54;;;;;;;11.10;7.05;;;20.90;99.90;;;;;;5078323;28;20216;-71
2022/08/22 05:00:21;;;;;;;8.45;6.85;;;21.00;99.90;;;;;;5069445;28;20673;-71
2022/08/22 05:02:51;;;;;;;9.00;7.75;;;21.00;99.90;;;;;;5075508;28;20209;-71
2022/08/22 05:05:23;;;;;;;11.93;7.78;;;21.10;99.90;;;;;;5069257;28;20216;-70
2022/08/22 05:07:52;;;;;;;10.20;7.80;;;21.10;99.90;;;;;;5070792;28;20585;-71
2022/08/22 05:10:22;;;;;;;8.68;6.57;;;21.20;99.90;;;;;;5080301;28;20258;-71
2022/08/22 05:12:55;;;;;;;10.10;6.97;;;21.30;99.90;;;;;;5077966;28;20627;-71
2022/08/22 05:15:24;;;;;;;9.30;6.63;;;21.40;99.90;;;;;;5074408;28;20197;-71
2022/08/22 05:17:55;;;;;;;10.77;7.25;;;21.40;99.90;;;;;;5071766;28;20267;-70
2022/08/22 05:20:25;;;;;;;10.80;6.65;;;21.50;99.90;;;;;;5071366;28;20193;-70
2022/08/22 05:22:55;;;;;;;11.57;6.95;;;21.60;99.90;;;;;;5070764;28;20258;-70
2022/08/22 05:25:26;;;;;;;10.23;7.15;;;21.70;99.90;;;;;;5074057;28;20207;-70
2022/08/22 05:28:00;;;;;;;7.07;6.25;;;21.70;99.90;;;;;;5072973;28;20193;-70
2022/08/22 05:30:30;;;;;;;10.13;6.13;;;21.80;99.90;;;;;;5069777;28;20196;-71
2022/08/22 05:33:03;;;;;;;8.93;6.88;;;21.90;99.90;;;;;;5081093;28;20286;-71
2022/08/22 05:35:34;;;;;;;10.82;6.47;;;22.00;99.90;;;;;;5086715;28;20247;-71
2022/08/22 05:38:03;;;;;;;7.78;6.38;;;22.00;99.90;;;;;;5072646;28;20916;-71
2022/08/22 05:40:33;;;;;;;9.05;6.82;;;22.00;99.90;;;;;;5074749;28;20197;-71
2022/08/22 05:43:00;;;;;;;13.40;6.45;;;22.10;99.90;;;;;;5070800;28;20225;-70
2022/08/22 05:45:28;;;;;;;8.32;6.20;;;22.10;99.90;;;;;;5068574;28;20212;-71
2022/08/22 05:48:05;;;;;;;11.20;6.72;;;22.20;99.90;;;;;;5079943;28;20612;-72
2022/08/22 05:50:38;;;;;;;8.50;5.78;;;22.30;99.90;;;;;;5076193;28;20244;-70
2022/08/22 05:53:08;;;;;;;8.70;6.63;;;22.40;99.90;;;;;;5072680;28;20208;-68
2022/08/22 05:55:46;;;;;;;9.75;6.55;;;22.50;99.90;;;;;;5076147;28;20196;-69
2022/08/22 05:58:43;;;;;;;8.93;6.57;;;22.60;99.90;;;;;;5084212;28;20200;-70
2022/08/22 06:01:21;;;;;;;9.88;5.80;;;22.70;99.90;;;;;;5079491;28;20196;-69
2022/08/22 06:04:04;;;;;;;8.57;5.43;;;22.80;99.90;;;;;;5076501;28;20572;-69
2022/08/22 06:06:37;;;;;;;6.53;5.30;;;22.80;99.90;;;;;;5058411;28;20666;-69
2022/08/22 06:09:08;;;;;;;8.93;5.25;;;22.90;99.90;;;;;;5069511;28;20212;-69
2022/08/22 06:11:40;;;;;;;8.57;5.68;;;23.00;99.90;;;;;;5081718;28;20667;-70
2022/08/22 06:14:16;;;;;;;9.48;5.53;;;23.00;99.90;;;;;;5071542;28;20205;-69
2022/08/22 06:16:49;;;;;;;8.25;5.35;;;23.10;99.90;;;;;;5067938;28;20221;-70
2022/08/22 06:19:18;;;;;;;9.50;5.95;;;23.10;99.90;;;;;;5069706;28;20204;-69
2022/08/22 06:21:47;;;;;;;11.93;5.45;;;23.20;99.90;;;;;;5060948;28;20286;-69
2022/08/22 06:24:20;;;;;;;6.68;5.57;;;23.30;99.90;;;;;;5076878;28;20208;-68
2022/08/22 06:26:49;;;;;;;9.80;5.50;;;23.30;99.90;;;;;;5073977;28;20201;-68
2022/08/22 06:29:30;;;;;;;8.18;5.63;;;23.50;99.90;;;;;;5074633;28;20204;-69
2022/08/22 06:31:58;;;;;;;9.88;5.25;;;23.60;99.90;;;;;;5082428;28;20232;-67
2022/08/22 06:34:32;;;;;;;13.18;5.60;;;23.70;99.90;;;;;;5057535;28;20202;-67
2022/08/22 06:37:03;;;;;;;16.88;6.68;;;23.80;99.90;;;;;;5066778;28;20210;-70
2022/08/22 06:39:33;;;;;;;9.85;5.18;;;23.90;99.90;;;;;;5067239;28;20504;-69
2022/08/22 06:42:02;;;;;;;6.82;5.88;;;24.00;99.90;;;;;;5070066;28;20210;-69
2022/08/22 06:44:34;;;;;;;10.45;5.50;;;24.10;99.90;;;;;;5066072;28;21028;-69
2022/08/22 06:47:05;;;;;;;13.15;5.65;;;24.20;99.90;;;;;;5078868;28;20267;-70
2022/08/22 06:49:36;;;;;;;8.45;5.53;;;24.30;99.90;;;;;;5072595;28;20220;-68
2022/08/22 06:52:07;;;;;;;9.90;6.47;;;24.30;99.90;;;;;;5073167;28;20205;-68
2022/08/22 06:54:37;;;;;;;9.18;6.22;;;24.40;99.90;;;;;;5066138;28;20206;-68
2022/08/22 06:57:06;;;;;;;13.00;5.93;;;24.50;99.90;;;;;;5070272;28;20233;-68
2022/08/22 06:59:37;;;;;;;13.60;6.50;;;24.70;99.90;;;;;;5066865;28;20209;-68
2022/08/22 07:02:08;;;;;;;7.85;5.00;;;24.80;99.90;;;;;;5064855;28;20717;-67
2022/08/22 07:04:37;;;;;;;7.60;5.45;;;25.00;99.90;;;;;;5065063;28;20202;-67
2022/08/22 07:07:04;;;;;;;6.40;4.93;;;25.00;99.90;;;;;;5068807;28;20206;-68
2022/08/22 07:09:34;;;;;;;12.60;4.80;;;25.10;99.90;;;;;;5074489;28;20774;-69
2022/08/22 07:12:03;;;;;;;8.48;4.85;;;25.00;99.90;;;;;;5080307;28;20673;-69
2022/08/22 07:14:39;;;;;;;7.78;5.03;;;25.10;99.90;;;;;;5071082;28;20207;-69
2022/08/22 07:17:08;;;;;;;10.68;4.78;;;25.10;99.90;;;;;;5070524;28;20212;-67
2022/08/22 07:19:38;;;;;;;8.70;4.68;;;25.10;99.90;;;;;;5077786;28;20257;-68
2022/08/22 07:22:14;;;;;;;8.82;4.88;;;25.10;99.90;;;;;;5074715;28;20426;-69
2022/08/22 07:24:46;;;;;;;8.05;4.88;;;25.20;99.90;;;;;;5073772;28;20216;-69
2022/08/22 07:27:25;;;;;;;9.07;4.93;;;25.30;99.90;;;;;;5074981;28;20200;-70
2022/08/22 07:30:01;;;;;;;6.03;4.40;;;25.20;99.90;;;;;;5074155;28;20415;-68
2022/08/22 07:32:40;;;;;;;10.10;4.78;;;25.20;99.90;;;;;;5068532;28;20642;-68
2022/08/22 07:35:12;;;;;;;6.28;4.30;;;25.10;99.90;;;;;;5069364;28;20276;-69
2022/08/22 07:37:49;;;;;;;5.78;4.57;;;25.20;99.90;;;;;;5064272;28;20249;-70
2022/08/22 07:40:22;;;;;;;9.63;5.22;;;25.30;99.90;;;;;;5060807;28;20201;-65
2022/08/22 07:42:54;;;;;;;10.80;4.95;;;25.40;99.90;;;;;;5068325;28;20419;-65
2022/08/22 07:45:32;;;;;;;11.63;5.20;;;25.60;99.90;;;;;;5069509;28;20210;-66
2022/08/22 07:48:07;;;;;;;11.40;4.88;;;25.70;99.90;;;;;;5070786;28;20220;-65
2022/08/22 07:50:42;;;;;;;10.55;5.72;;;25.90;99.90;;;;;;5066494;28;20201;-65
2022/08/22 07:53:19;;;;;;;6.22;4.78;;;26.00;99.90;;;;;;5066321;28;20231;-65
2022/08/22 07:55:47;;;;;;;7.03;4.97;;;26.20;99.90;;;;;;5059234;28;20596;-65
2022/08/22 07:58:16;;;;;;;7.70;4.45;;;26.40;99.90;;;;;;5065685;28;20704;-65
2022/08/22 08:00:45;;;;;;;6.07;4.70;;;26.50;99.90;;;;;;5062362;28;20228;-66
2022/08/22 08:03:13;;;;;;;7.55;4.53;;;26.50;99.90;;;;;;5070259;28;20212;-66
2022/08/22 08:05:43;;;;;;;9.65;4.63;;;26.60;99.90;;;;;;5068915;28;20209;-65
2022/08/22 08:08:23;;;;;;;7.10;4.88;;;26.70;99.90;;;;;;5058072;28;20582;-66
2022/08/22 08:10:53;;;;;;;8.43;4.57;;;26.70;99.90;;;;;;5058172;28;20213;-64
2022/08/22 08:13:25;;;;;;;6.95;4.53;;;26.80;99.90;;;;;;5063874;28;20205;-64
2022/08/22 08:15:52;;;;;;;9.05;4.40;;;27.00;99.90;;;;;;5063031;28;20212;-66
2022/08/22 08:18:24;;;;;;;9.80;4.72;;;27.10;99.90;;;;;;5069429;28;20221;-66
2022/08/22 08:20:56;;;;;;;7.65;4.15;;;27.10;99.90;;;;;;5066789;28;20193;-67
2022/08/22 08:23:24;;;;;;;5.63;4.97;;;27.10;99.90;;;;;;5057859;28;20229;-67
2022/08/22 08:25:57;;;;;;;7.60;4.25;;;27.10;99.90;;;;;;5055955;28;20197;-68
2022/08/22 08:28:33;;;;;;;10.25;5.90;;;27.20;99.90;;;;;;5065600;28;20197;-68
2022/08/22 08:31:07;;;;;;;9.60;4.93;;;27.40;99.90;;;;;;5062688;28;20274;-66
2022/08/22 08:33:37;;;;;;;8.70;5.35;;;27.60;99.90;;;;;;5063984;28;20262;-66
2022/08/22 08:36:12;;;;;;;10.05;4.95;;;27.80;99.90;;;;;;5055013;28;20238;-67
2022/08/22 08:38:45;;;;;;;8.25;4.53;;;28.10;99.90;;;;;;5070925;28;20229;-67
2022/08/22 08:41:32;;;;;;;7.07;4.15;;;28.10;99.90;;;;;;5061283;28;20201;-66
2022/08/22 08:44:07;;;;;;;6.78;4.85;;;28.20;99.40;;;;;;5063598;28;20209;-67
2022/08/22 08:47:08;;;;;;;5.95;4.13;;;28.20;99.40;;;;;;5066625;28;20202;-67
2022/08/22 08:49:47;;;;;;;7.28;4.25;;;28.40;99.10;;;;;;5065581;28;20198;-66
2022/08/22 08:52:46;;;;;;;10.82;4.75;;;28.30;98.60;;;;;;5066620;28;20205;-67
2022/08/22 08:55:25;;;;;;;4.35;3.95;;;28.40;98.70;;;;;;5062656;28;20210;-66
2022/08/22 08:58:09;;;;;;;7.45;4.38;;;28.30;98.20;;;;;;5063920;28;20700;-65
2022/08/22 09:00:51;;;;;;;5.60;4.18;;;28.20;98.20;;;;;;5059337;28;20212;-67
2022/08/22 09:03:36;;;;;;;5.75;4.28;;;28.10;98.30;;;;;;5066791;28;20214;-66
2022/08/22 09:06:28;;;;;;;4.72;4.05;;;28.30;98.70;;;;;;5064501;28;20504;-67
2022/08/22 09:09:11;;;;;;;8.93;4.13;;;28.60;97.90;;;;;;5070197;28;20197;-71
2022/08/22 09:12:17;;;;;;;6.85;4.38;;;28.80;97.40;;;;;;5063133;28;20266;-68
2022/08/22 09:15:25;;;;;;;5.57;3.53;;;29.00;96.80;;;;;;5049797;28;20204;-68
2022/08/22 09:18:30;;;;;;;5.85;3.97;;;29.00;96.30;;;;;;5004345;28;20211;-69
2022/08/22 09:21:31;;;;;;;8.88;3.60;;;29.10;96.40;;;;;;4976103;28;20215;-69
2022/08/22 09:24:39;;;;;;;5.43;3.97;;;29.40;96.40;;;;;;5060118;28;20208;-68
2022/08/22 09:27:11;;;;;;;4.25;3.72;;;29.70;95.30;;;;;;5067440;28;20204;-69
2022/08/22 09:29:42;;;;;;;4.55;3.55;;;29.70;93.80;;;;;;5064992;28;20445;-70
2022/08/22 09:32:18;;;;;;;4.47;3.70;;;29.80;93.20;;;;;;5061589;28;20262;-68
2022/08/22 09:35:02;;;;;;;4.80;3.40;;;29.90;93.10;;;;;;5061991;28;20623;-69
2022/08/22 09:37:39;;;;;;;4.50;3.35;;;30.00;93.30;;;;;;5062321;28;20221;-70
2022/08/22 09:40:19;;;;;;;3.75;3.42;;;30.20;92.50;;;;;;5073766;28;20679;-70
2022/08/22 09:42:58;;;;;;;7.68;3.50;;;30.20;92.00;;;;;;5071406;28;20201;-68
2022/08/22 09:45:37;;;;;;;5.50;3.78;;;30.40;91.90;;;;;;5065173;28;20209;-68
2022/08/22 09:48:10;;;;;;;4.60;3.40;;;30.60;91.80;;;;;;5068679;28;20201;-70
2022/08/22 09:50:47;;;;;;;5.32;3.38;;;30.50;90.90;;;;;;5062663;28;20208;-70
2022/08/22 09:53:35;;;;;;;6.72;3.40;;;30.10;91.00;;;;;;5066864;28;20196;-70
2022/08/22 09:56:07;;;;;;;7.00;4.57;;;29.80;91.40;;;;;;5060895;28;20197;-69
2022/08/22 09:58:39;;;;;;;6.50;3.90;;;29.60;91.80;;;;;;5065427;28;20570;-66
2022/08/22 10:01:16;;;;;;;4.13;3.70;;;29.40;92.10;;;;;;5069924;28;20541;-68
2022/08/22 10:04:18;;;;;;;8.35;4.25;;;29.20;92.40;;;;;;5072381;28;20428;-68
2022/08/22 10:06:54;;;;;;;6.43;4.07;;;29.00;92.90;;;;;;5045519;28;20213;-66
2022/08/22 10:09:25;;;;;;;6.70;4.57;;;28.80;93.20;;;;;;5069132;28;20310;-67
2022/08/22 10:12:00;;;;;;;4.90;4.40;;;28.70;93.30;;;;;;5069882;28;20223;-68
2022/08/22 10:14:33;;;;;;;3.95;3.55;;;28.50;93.70;;;;;;5075403;28;20633;-68
2022/08/22 10:17:11;;;;;;;7.45;3.75;;;28.30;93.80;;;;;;5075743;28;20306;-68
2022/08/22 10:19:42;;;;;;;7.50;4.47;;;28.10;94.10;;;;;;5075098;28;20221;-68
2022/08/22 10:22:33;;;;;;;8.65;3.92;;;27.80;94.50;;;;;;5080767;28;20232;-70
2022/08/22 10:25:11;;;;;;;6.97;4.15;;;27.70;94.80;;;;;;5075394;28;20208;-68
2022/08/22 10:27:59;;;;;;;6.07;3.47;;;27.70;94.70;;;;;;5072214;28;20268;-69
2022/08/22 10:30:28;;;;;;;6.78;3.78;;;27.70;94.40;;;;;;5070477;28;20541;-68
2022/08/22 10:33:03;;;;;;;5.55;3.63;;;27.60;94.60;;;;;;5062346;28;20208;-68
2022/08/22 10:35:37;;;;;;;5.75;4.40;;;27.50;94.80;;;;;;5071360;28;20721;-69
2022/08/22 10:38:13;;;;;;;7.30;4.80;;;27.40;95.00;;;;;;5067007;28;20333;-68
2022/08/22 10:40:47;;;;;;;4.28;3.55;;;27.40;95.20;;;;;;5077926;28;20197;-70
2022/08/22 10:43:21;;;;;;;4.32;3.80;;;27.50;95.20;;;;;;5069556;28;20219;-69
2022/08/22 10:45:52;;;;;;;5.15;3.45;;;27.60;95.40;;;;;;5078475;28;20205;-68
2022/08/22 10:48:29;;;;;;;4.53;3.30;;;27.60;94.90;;;;;;5077869;28;20251;-68
2022/08/22 10:51:16;;;;;;;7.40;3.90;;;27.60;94.70;;;;;;5070040;28;20258;-69
2022/08/22 10:54:34;;;;;;;4.85;3.95;;;27.70;94.90;;;;;;5072061;28;20205;-69
2022/08/22 10:57:15;;;;;;;6.18;3.95;;;27.70;94.70;;;;;;5070425;28;20205;-70
2022/08/22 10:59:51;;;;;;;7.05;4.28;;;27.60;94.60;;;;;;5070715;28;20217;-68
2022/08/22 11:02:40;;;;;;;4.80;3.78;;;27.50;94.80;;;;;;5068829;28;20204;-68
2022/08/22 11:05:35;;;;;;;7.13;4.38;;;27.50;95.00;;;;;;5061135;28;20563;-70
2022/08/22 11:08:32;;;;;;;9.13;4.60;;;27.40;95.30;;;;;;5067404;28;20213;-69
2022/08/22 11:11:08;;;;;;;10.20;5.47;;;27.20;95.50;;;;;;5072487;28;20208;-69
2022/08/22 11:13:41;;;;;;;5.25;3.90;;;27.10;95.60;;;;;;5072205;28;20215;-70
2022/08/22 11:16:18;;;;;;;13.75;4.95;;;27.00;96.00;;;;;;5073073;28;20208;-67
2022/08/22 11:19:08;;;;;;;9.88;4.15;;;27.00;96.00;;;;;;5065724;28;20205;-72
2022/08/22 11:21:45;;;;;;;6.85;4.43;;;27.00;96.00;;;;;;5070751;28;20259;-70
2022/08/22 11:24:33;;;;;;;7.90;4.07;;;27.00;96.00;;;;;;5069094;28;20232;-69
2022/08/22 11:27:07;;;;;;;6.28;4.82;;;27.00;96.00;;;;;;5066498;28;20206;-69
2022/08/22 11:29:39;;;;;;;8.23;4.05;;;27.10;96.00;;;;;;5070868;28;20229;-69
2022/08/22 11:32:14;;;;;;;6.55;4.40;;;27.20;96.00;;;;;;5062554;28;20201;-69
2022/08/22 11:34:51;;;;;;;4.78;4.20;;;27.40;95.90;;;;;;5071168;28;20200;-69
2022/08/22 11:37:30;;;;;;;4.55;3.97;;;27.40;95.60;;;;;;5071425;28;20200;-70
2022/08/22 11:40:10;;;;;;;6.13;4.30;;;27.50;95.80;;;;;;5066312;28;20689;-72
2022/08/22 11:42:44;;;;;;;6.07;4.00;;;27.60;95.60;;;;;;5065245;28;20263;-69
2022/08/22 11:45:17;;;;;;;4.75;4.18;;;27.70;95.30;;;;;;5063761;28;20287;-70
2022/08/22 11:47:50;;;;;;;6.22;4.10;;;27.80;95.20;;;;;;5067670;28;20320;-70
2022/08/22 11:50:28;;;;;;;5.93;3.83;;;27.70;95.10;;;;;;5063324;28;20562;-70
2022/08/22 11:53:13;;;;;;;5.32;3.60;;;27.80;95.20;;;;;;5063643;28;20220;-70
2022/08/22 11:55:48;;;;;;;5.13;4.10;;;27.80;95.00;;;;;;5059089;28;20527;-70
2022/08/22 11:58:30;;;;;;;7.75;4.70;;;27.80;95.10;;;;;;5060640;28;20312;-71
2022/08/22 12:01:02;;;;;;;5.50;3.97;;;27.80;95.10;;;;;;5062853;28;20205;-70
2022/08/22 12:03:45;;;;;;;6.70;4.65;;;27.90;94.80;;;;;;5059813;28;20272;-70
2022/08/22 12:06:41;;;;;;;8.90;4.15;;;27.80;94.90;;;;;;5059968;28;20288;-70
2022/08/22 12:09:19;;;;;;;6.40;4.47;;;27.70;95.00;;;;;;5061839;28;20282;-71
2022/08/22 12:11:58;;;;;;;4.53;4.07;;;27.60;95.30;;;;;;5060897;28;20227;-70
2022/08/22 12:14:31;;;;;;;5.78;4.10;;;27.60;95.50;;;;;;5064520;28;20205;-71
2022/08/22 12:17:15;;;;;;;7.22;4.60;;;27.60;95.40;;;;;;5073335;28;20209;-70
2022/08/22 12:19:55;;;;;;;8.20;4.07;;;27.50;95.50;;;;;;5069326;28;20341;-70
2022/08/22 12:22:48;;;;;;;7.38;4.35;;;27.50;95.50;;;;;;5065048;28;20217;-70
2022/08/22 12:25:26;;;;;;;10.73;4.72;;;27.50;95.70;;;;;;5061739;28;20550;-69
2022/08/22 12:28:06;;;;;;;7.55;4.05;;;27.50;95.70;;;;;;5060757;28;20206;-67
2022/08/22 12:30:41;;;;;;;6.50;4.20;;;27.40;95.70;;;;;;5057153;28;20535;-69
2022/08/22 12:33:27;;;;;;;10.82;4.53;;;27.50;95.60;;;;;;5065265;28;20208;-68
2022/08/22 12:36:15;;;;;;;6.80;4.38;;;27.40;95.70;;;;;;5067745;28;20224;-71
2022/08/22 12:39:05;;;;;;;8.10;4.28;;;27.40;95.70;;;;;;5066211;28;20213;-69
2022/08/22 12:41:48;;;;;;;10.27;4.68;;;27.40;95.70;;;;;;5063042;28;20205;-69
2022/08/22 12:44:37;;;;;;;6.43;4.28;;;27.40;95.70;;;;;;5062686;28;20197;-69
2022/08/22 12:47:27;;;;;;;5.75;4.50;;;27.40;95.70;;;;;;5063867;28;20653;-69
2022/08/22 12:50:11;;;;;;;9.23;4.05;;;27.40;95.80;;;;;;5070266;28;20255;-69
2022/08/22 12:52:57;;;;;;;11.48;4.70;;;27.40;95.80;;;;;;5064321;28;20209;-67
2022/08/22 12:55:36;;;;;;;8.15;4.13;;;27.40;95.80;;;;;;5069513;28;20680;-68
2022/08/22 12:58:12;;;;;;;8.30;4.80;;;27.50;95.80;;;;;;5073980;28;20209;-68
2022/08/22 13:00:43;;;;;;;12.45;4.35;;;27.60;95.80;;;;;;5077388;28;20641;-69
2022/08/22 13:03:13;;;;;;;7.32;4.38;;;27.60;95.80;;;;;;5078680;28;20201;-67
2022/08/22 13:05:46;;;;;;;7.45;4.13;;;27.60;95.80;;;;;;5070664;28;20511;-68
2022/08/22 13:08:24;;;;;;;9.57;4.45;;;27.70;95.90;;;;;;5062066;28;20202;-69
2022/08/22 13:10:57;;;;;;;6.55;4.50;;;27.70;95.80;;;;;;5076349;28;20212;-68
2022/08/22 13:13:30;;;;;;;14.88;5.07;;;27.80;95.90;;;;;;5075364;28;20197;-68
2022/08/22 13:16:00;;;;;;;6.85;4.22;;;27.80;95.90;;;;;;5070248;28;20205;-69
2022/08/22 13:18:32;;;;;;;9.68;4.60;;;27.80;95.90;;;;;;5069650;28;20252;-69
2022/08/22 13:21:03;;;;;;;6.22;3.70;;;27.80;95.80;;;;;;5082236;28;20569;-69
2022/08/22 13:23:37;;;;;;;10.07;4.43;;;27.80;95.80;;;;;;5067268;28;20368;-68
2022/08/22 13:26:11;;;;;;;6.25;4.03;;;27.90;95.80;;;;;;5074567;28;20201;-68
2022/08/22 13:28:43;;;;;;;7.20;3.97;;;28.00;95.70;;;;;;5068770;28;20696;-69
2022/08/22 13:31:20;;;;;;;7.35;4.22;;;27.90;95.20;;;;;;5074059;28;20201;-69
2022/08/22 13:33:47;;;;;;;9.25;4.35;;;28.00;95.00;;;;;;5077890;28;20204;-70
2022/08/22 13:36:18;;;;;;;6.93;4.50;;;28.10;94.80;;;;;;5084691;28;20244;-68
2022/08/22 13:38:54;;;;;;;5.13;4.13;;;28.10;94.50;;;;;;5074468;28;20260;-69
2022/08/22 13:41:26;;;;;;;8.52;4.07;;;28.10;94.30;;;;;;5067575;28;20549;-69
2022/08/22 13:44:10;;;;;;;3.88;3.50;;;28.20;94.20;;;;;;5070817;28;20646;-69
2022/08/22 13:46:38;;;;;;;6.00;3.80;;;28.20;94.00;;;;;;5074369;28;20624;-70